Al Rekayyat — V7QF3 — position and weather

sailwx.info

Track history (hours):
 
Tides and Currents Weather Stations Pressure Air Temp Water Temp Dewpoint Dewpoint Depression Visibility Wind Speed Wind Dir Waves Ship Positions

Al Rekayyat

Last reported at 2016-Aug-08 15:27 UTC. Time now 2016-Aug-27 18:47 UTC.
Position N 02°05' E 102°05'.
Warning: this ship's position is 19 days out of date.

Length 315 m; draft 9.3 m.

Type: Ship (hazmat cat D). MMSI: 538003347.

Date/timePositionNaut miles runAvg speedWind from/ knotsBaromVisibWave heightAir tempDewpointWater temp
2016-Aug-08 15:27N 02°05' E 102°05'1615.3
2016-Aug-08 14:24N 01°55' E 102°18'1415.8
2016-Aug-08 13:32N 01°49' E 102°30'8016.1
2016-Aug-08 08:33N 01°10' E 103°40'1010.2
2016-Aug-08 07:32N 01°12' E 103°51'1010.1
2016-Aug-08 06:33N 01°15' E 103°60'  
2016-Aug-01 10:33N 34°56' E 139°39'1313.4
2016-Aug-01 09:33N 35°09' E 139°45'1111.2
2016-Aug-01 08:33N 35°20' E 139°43'5 5.2
2016-Aug-01 07:33N 35°21' E 139°49'1 0.3
2016-Aug-01 05:33N 35°21' E 139°49'0 0.0
2016-Aug-01 04:31N 35°21' E 139°49'0 0.0
2016-Aug-01 03:32N 35°21' E 139°49'0 0.0
2016-Aug-01 02:32N 35°21' E 139°49'0 0.0
2016-Aug-01 01:33N 35°21' E 139°49'0 0.0
2016-Aug-01 00:31N 35°21' E 139°49'0 0.0
2016-Jul-31 23:31N 35°21' E 139°49'0 0.0
2016-Jul-31 22:32N 35°21' E 139°49'0 0.0
2016-Jul-31 21:33N 35°21' E 139°49'0 0.0
2016-Jul-31 20:33N 35°21' E 139°49'0 0.0
2016-Jul-31 19:31N 35°21' E 139°49'0 0.0
2016-Jul-31 18:32N 35°21' E 139°49'0 0.0
2016-Jul-31 17:32N 35°21' E 139°49'0 0.0
2016-Jul-31 16:33N 35°21' E 139°49'0 0.0
2016-Jul-31 15:31N 35°21' E 139°49'0 0.0
2016-Jul-31 14:31N 35°21' E 139°49'0 0.0
2016-Jul-31 13:32N 35°21' E 139°49'0 0.0
2016-Jul-31 12:33N 35°21' E 139°49'0 0.0
2016-Jul-31 11:33N 35°21' E 139°49'0 0.0
2016-Jul-31 10:31N 35°21' E 139°49'0 0.0
2016-Jul-31 09:32N 35°21' E 139°49'0 0.0
2016-Jul-31 08:32N 35°21' E 139°49'0 0.0
2016-Jul-31 07:33N 35°21' E 139°49'0 0.0
2016-Jul-31 06:31N 35°21' E 139°49'0 0.0
2016-Jul-31 05:31N 35°21' E 139°49'0 0.0
2016-Jul-31 04:32N 35°21' E 139°49'0 0.0
2016-Jul-31 03:33N 35°21' E 139°49'0 0.0
2016-Jul-31 02:33N 35°21' E 139°49'0 0.0
2016-Jul-31 01:31N 35°21' E 139°49'0 0.0
2016-Jul-31 00:32N 35°21' E 139°49'5 2.3
2016-Jul-30 22:33N 35°20' E 139°44'1110.8
2016-Jul-30 21:33N 35°09' E 139°47'7 7.2
2016-Jul-30 20:33N 35°02' E 139°44'8 7.8
2016-Jul-30 19:32N 34°55' E 139°41'10 8.1
2016-Jul-30 18:19N 34°45' E 139°45'6 8.3
2016-Jul-30 17:33N 34°39' E 139°45'9 8.3
2016-Jul-30 16:31N 34°31' E 139°48'2 2.0
2016-Jul-30 15:30N 34°29' E 139°50'2 1.1
2016-Jul-30 14:04N 34°28' E 139°52'1 1.1
2016-Jul-30 13:32N 34°28' E 139°52'1 1.0
2016-Jul-30 12:30N 34°27' E 139°53'1 1.2
2016-Jul-30 11:33N 34°26' E 139°54'1 1.1
2016-Jul-30 10:33N 34°26' E 139°55'1 1.0
2016-Jul-30 09:25N 34°25' E 139°56'1 1.0
2016-Jul-30 08:13N 34°24' E 139°57'0 0.7
2016-Jul-30 07:33N 34°24' E 139°57'5 0.9
2016-Jul-30 02:22N 34°21' E 140°02'0 0.2
2016-Jul-30 01:10N 34°21' E 140°02'0 0.3
2016-Jul-30 00:32N 34°21' E 140°02'1 0.7
2016-Jul-29 23:30N 34°20' E 140°02'5 4.6
2016-Jul-29 22:27N 34°15' E 140°02'910.3
2016-Jul-29 21:31N 34°06' E 140°03'  
Track history (hours):
 
Tides and Currents Weather Stations Pressure Air Temp Water Temp Dewpoint Dewpoint Depression Visibility Wind Speed Wind Dir Waves Ship Positions

Al Rekayyat

Last reported at 2016-Aug-08 15:27 UTC. Time now 2016-Aug-27 18:47 UTC.
Position N 02°05' E 102°05'.
Warning: this ship's position is 19 days out of date.

Length 315 m; draft 9.3 m.

Type: Ship (hazmat cat D). MMSI: 538003347.

Date/timePositionNaut miles runAvg speedWind from/ knotsBaromVisibWave heightAir tempDewpointWater temp
2016-Aug-08 15:27N 02°05' E 102°05'1615.3
2016-Aug-08 14:24N 01°55' E 102°18'1415.8
2016-Aug-08 13:32N 01°49' E 102°30'8016.1
2016-Aug-08 08:33N 01°10' E 103°40'1010.2
2016-Aug-08 07:32N 01°12' E 103°51'1010.1
2016-Aug-08 06:33N 01°15' E 103°60'  
2016-Aug-01 10:33N 34°56' E 139°39'1313.4
2016-Aug-01 09:33N 35°09' E 139°45'1111.2
2016-Aug-01 08:33N 35°20' E 139°43'5 5.2
2016-Aug-01 07:33N 35°21' E 139°49'1 0.3
2016-Aug-01 05:33N 35°21' E 139°49'0 0.0
2016-Aug-01 04:31N 35°21' E 139°49'0 0.0
2016-Aug-01 03:32N 35°21' E 139°49'0 0.0
2016-Aug-01 02:32N 35°21' E 139°49'0 0.0
2016-Aug-01 01:33N 35°21' E 139°49'0 0.0
2016-Aug-01 00:31N 35°21' E 139°49'0 0.0
2016-Jul-31 23:31N 35°21' E 139°49'0 0.0
2016-Jul-31 22:32N 35°21' E 139°49'0 0.0
2016-Jul-31 21:33N 35°21' E 139°49'0 0.0
2016-Jul-31 20:33N 35°21' E 139°49'0 0.0
2016-Jul-31 19:31N 35°21' E 139°49'0 0.0
2016-Jul-31 18:32N 35°21' E 139°49'0 0.0
2016-Jul-31 17:32N 35°21' E 139°49'0 0.0
2016-Jul-31 16:33N 35°21' E 139°49'0 0.0
2016-Jul-31 15:31N 35°21' E 139°49'0 0.0
2016-Jul-31 14:31N 35°21' E 139°49'0 0.0
2016-Jul-31 13:32N 35°21' E 139°49'0 0.0
2016-Jul-31 12:33N 35°21' E 139°49'0 0.0
2016-Jul-31 11:33N 35°21' E 139°49'0 0.0
2016-Jul-31 10:31N 35°21' E 139°49'0 0.0
2016-Jul-31 09:32N 35°21' E 139°49'0 0.0
2016-Jul-31 08:32N 35°21' E 139°49'0 0.0
2016-Jul-31 07:33N 35°21' E 139°49'0 0.0
2016-Jul-31 06:31N 35°21' E 139°49'0 0.0
2016-Jul-31 05:31N 35°21' E 139°49'0 0.0
2016-Jul-31 04:32N 35°21' E 139°49'0 0.0
2016-Jul-31 03:33N 35°21' E 139°49'0 0.0
2016-Jul-31 02:33N 35°21' E 139°49'0 0.0
2016-Jul-31 01:31N 35°21' E 139°49'0 0.0
2016-Jul-31 00:32N 35°21' E 139°49'5 2.3
2016-Jul-30 22:33N 35°20' E 139°44'1110.8
2016-Jul-30 21:33N 35°09' E 139°47'7 7.2
2016-Jul-30 20:33N 35°02' E 139°44'8 7.8
2016-Jul-30 19:32N 34°55' E 139°41'10 8.1
2016-Jul-30 18:19N 34°45' E 139°45'6 8.3
2016-Jul-30 17:33N 34°39' E 139°45'9 8.3
2016-Jul-30 16:31N 34°31' E 139°48'2 2.0
2016-Jul-30 15:30N 34°29' E 139°50'2 1.1
2016-Jul-30 14:04N 34°28' E 139°52'1 1.1
2016-Jul-30 13:32N 34°28' E 139°52'1 1.0
2016-Jul-30 12:30N 34°27' E 139°53'1 1.2
2016-Jul-30 11:33N 34°26' E 139°54'1 1.1
2016-Jul-30 10:33N 34°26' E 139°55'1 1.0
2016-Jul-30 09:25N 34°25' E 139°56'1 1.0
2016-Jul-30 08:13N 34°24' E 139°57'0 0.7
2016-Jul-30 07:33N 34°24' E 139°57'5 0.9
2016-Jul-30 02:22N 34°21' E 140°02'0 0.2
2016-Jul-30 01:10N 34°21' E 140°02'0 0.3
2016-Jul-30 00:32N 34°21' E 140°02'1 0.7
2016-Jul-29 23:30N 34°20' E 140°02'5 4.6
2016-Jul-29 22:27N 34°15' E 140°02'910.3
2016-Jul-29 21:31N 34°06' E 140°03'  

Dump ship's entire track history